CheckWX is a tool to help pilots better visualize weather data.  It is not intended as a substitute for an official pre-flight weather briefing.

18:01:59 UTC

HLTD TAF
Ghadames East Airport
Ghadames, Libya
TAF HLTD 171700Z 1718/1818 09012KT CAVOK BECMG 1803/1805 VRB02KT BECMG 1809/1811 10012KT

Feb-17@
18:00 UTC

Feb-17 @ 18:00 UTC

Feb-18@
03:00 UTC

Feb-18 @ 03:00 UTC

TAF HLTD 171700Z 1718/1818 09012KT CAVOK
Wind
  • 090° at 12 KTS
Visibility
10,000+ meters
Conditions
No significant weather
Cloud Levels
  • No significant clouds

Feb-18@
03:00 UTC

Feb-18 @ 03:00 UTC

Feb-18@
09:00 UTC

Feb-18 @ 09:00 UTC

BECMG 1803/1805 VRB02KT

Becoming

BecomingConditions expected by Mon, Feb 18, 2019 @ 05:00 UTC

Wind
  • Variable at 2 KTS
Visibility
10,000+ meters
Conditions
No significant weather
Cloud Levels
  • No significant clouds

Feb-18@
09:00 UTC

Feb-18 @ 09:00 UTC

Feb-18@
18:00 UTC

Feb-18 @ 18:00 UTC

BECMG 1809/1811 10012KT

Becoming

BecomingConditions expected by Mon, Feb 18, 2019 @ 11:00 UTC

Wind
  • 100° at 12 KTS
Visibility
10,000+ meters
Conditions
No significant weather
Cloud Levels
  • No significant clouds